x

Shumagin Islands - 85nm South Of Sand Point, Ak (46075) Wave Buoy

7:50am - Sat 30th May 2015 All times are UTC.

  • Sig Wave height 6.6ft
  • Peak Period 8s
  • Average Period 6s
  • Wind
    7mph, 9mph gusts
  • Sea Temp 45°f
  • Air Temp 45°f
  • Sea Pressure 1018.7mb

More Historic Weather Station data

Upgrade to MSW Pro to gain access to the past 30 days of data for over 8000 Wavebouys and Weather Stations around the globe.

Join Pro

Comparision Forecast

View Surf forecast
   
Sat 05/30 7:50am 6.5ft 8s 6s 7 9 mph 1018.7mb 45f 45f
6:50am 6.5ft 8s 6s 9 11 mph 1018.8mb 45f 45f
5:50am 6ft 8s 6s 9 11 mph 1018.6mb 45f 45f
4:50am 6ft 8s 6s 11 13 mph 1018.7mb 45f 45f
3:50am 6.5ft 8s 6s 11 13 mph 1018.6mb 45f 45f
2:50am 6.5ft 9s 6s 11 16 mph 1018.8mb 45f 45f
1:50am 6ft 9s 6s 13 16 mph 1019.3mb 45f 45f
12:50am 6.5ft 6s 6s 13 16 mph 1019.6mb 45f 45f
Fri 05/29 11:50pm 7ft 9s 6s 13 16 mph 1019.7mb 45f 45f
10:50pm 7ft 10s 6s 13 16 mph 1019.9mb 45f 45f
9:50pm 6.5ft 6s 6s 13 18 mph 1020mb 45f 45f
8:50pm 6.5ft 6s 6s 13 18 mph 1020mb 45f 45f
7:50pm 6.5ft 6s 5s 16 18 mph 1019.8mb 45f 45f
6:50pm 7ft 6s 6s 16 20 mph 1019.8mb 45f 45f
5:50pm 6.5ft 6s 5s 16 20 mph 1019.7mb 45f 45f
4:50pm 6.5ft 5s 5s 18 22 mph 1019.6mb 45f 45f
3:50pm 7ft 6s 5s 18 22 mph 1019.6mb 45f 45f
2:50pm 6.5ft 5s 5s 20 25 mph 1019.6mb 45f 45f
1:50pm 6.5ft 5s 5s 18 22 mph 1019.8mb 45f 45f
12:50pm 6ft 5s 5s 20 25 mph 1019.9mb 45f 45f
11:50am 6.5ft 11s  -  20 27 mph 1020.1mb 45f 45f
10:50am 6.5ft 5s 5s 20 25 mph 1020.4mb 45f 45f
9:50am 6ft 5s 5s 20 27 mph 1020.5mb 45f 45f
8:50am 6.5ft 5s 5s 20 25 mph 1021mb 45f 45f
7:50am 5.5ft 9s 5s 18 22 mph 1021.5mb 44f 45f
6:50am 5.5ft 5s 5s 18 22 mph 1022.3mb 44f 45f
5:50am 5.5ft 5s 5s 18 20 mph 1022.3mb 45f 46f
4:50am 5.5ft 8s 5s 13 18 mph 1022.8mb 45f 45f
3:50am 5.5ft 8s 5s 16 20 mph 1023.1mb 45f 46f
2:50am 6ft 9s 5s 18 22 mph 1023.4mb 45f 46f
1:50am 6ft 10s 5s 18 22 mph 1023.7mb 45f 47f
12:50am 6.5ft 10s 6s 18 20 mph 1024.3mb 45f 46f
Thu 05/28 11:50pm 7ft 8s 6s 16 20 mph 1024.6mb 44f 46f
10:50pm 6ft 9s 6s 16 20 mph 1025mb 44f 46f
9:50pm 6ft 11s 6s 16 20 mph 1025.3mb 44f 46f
8:50pm 6ft 10s 6s 16 20 mph 1025.3mb 44f 45f
7:50pm 6ft 9s 6s 16 20 mph 1025.3mb 44f 46f
6:50pm 6ft 11s 6s 18 22 mph 1025.3mb 44f 45f
5:50pm 6ft 9s 6s 16 22 mph 1025.5mb 44f 44f
4:50pm 6ft 9s 6s 18 22 mph 1025.3mb 44f 44f
3:50pm 6ft 9s 6s 16 20 mph 1025.2mb 44f 44f
2:50pm 7ft 11s 6s 16 20 mph 1025.1mb 44f 44f
1:50pm 7ft 9s 6s 16 20 mph 1024.8mb 44f 44f
12:50pm 7ft 8s 6s 13 18 mph 1025.3mb 44f 44f
11:50am 8ft 8s 6s 13 16 mph 1025.6mb 44f 44f
10:50am 8ft 11s 6s 16 20 mph 1025.5mb 44f 44f
9:50am 8.5ft 9s 6s 16 20 mph 1025.2mb 44f 44f
8:50am 8ft 9s 6s 16 20 mph 1024.9mb 44f 43f
7:50am 8ft 9s 6s 16 20 mph 1024.8mb 44f 43f
6:50am 8ft 9s 6s 16 18 mph 1024.4mb 44f 43f
5:50am 7.5ft 9s 6s 16 20 mph 1024.1mb 44f 43f
4:50am 8ft 10s 6s 13 18 mph 1023.8mb 44f 43f
3:50am 8.5ft 10s  -  16 20 mph 1023.4mb 44f 43f
2:50am 9ft 8s 6s 16 20 mph 1023.3mb 44f 43f
1:50am 9ft 10s 6s 18 22 mph 1022.9mb 44f 43f
12:50am 9ft 9s 6s 18 22 mph 1022.5mb 44f 44f
Wed 05/27 11:50pm 9.5ft 10s 6s 20 25 mph 1022.3mb 44f 44f
10:50pm 9.5ft 10s 6s 20 25 mph 1022.1mb 44f 44f
9:50pm 10ft 10s 6s 20 25 mph 1021.7mb 44f 44f
8:50pm 11.5ft 10s 7s 22 27 mph 1021.3mb 44f 44f
7:50pm 11ft 10s 7s 20 27 mph 1020.8mb 44f 44f
6:50pm 10.5ft 10s 7s 20 27 mph 1020.5mb 44f 44f
5:50pm 9ft 10s 6s 20 25 mph 1020.2mb 44f 44f
4:50pm 9.5ft 10s 6s 20 22 mph 1019.8mb 44f 44f
3:50pm 9.5ft 9s 6s 20 25 mph 1019.3mb 44f 44f
2:50pm 9.5ft 9s 6s 20 25 mph 1019mb 44f 44f
1:50pm 9ft 11s 6s 20 25 mph 1018.8mb 44f 44f
12:50pm 10.5ft 9s 7s 20 25 mph 1018.7mb 44f 44f
11:50am 11ft 11s 7s 20 25 mph 1018.6mb 44f 44f
10:50am 11ft 10s 7s 20 25 mph 1018.4mb 44f 44f
9:50am 11ft 9s 7s 22 27 mph 1018.3mb 44f 44f
8:50am 12ft 10s 7s 20 27 mph 1018.2mb 44f 44f
7:50am 12ft 9s 7s 20 25 mph 1018mb 44f 44f
6:50am 12ft 9s 7s 22 27 mph 1017.4mb 44f 44f
5:50am 11ft 9s 7s 22 29 mph 1017.1mb 44f 44f
4:50am 12ft 8s 7s 22 27 mph 1016.8mb 44f 44f
3:50am 12.5ft 8s 7s 22 27 mph 1016.6mb 44f 44f
2:50am 11ft 8s 6s 25 31 mph 1016.6mb 44f 44f
1:50am 11.5ft 8s 6s 27 31 mph 1016.7mb 44f 44f
12:50am 11ft 8s 6s 27 34 mph 1016.7mb 44f 44f
Tue 05/26 11:50pm 10ft 8s 6s 29 36 mph 1016.4mb 44f 45f
10:50pm 10.5ft 8s 6s 29 34 mph 1016.4mb 44f 44f
9:50pm 10ft 8s 6s 29 38 mph 1016.4mb 44f 44f
8:50pm 9ft 7s 5s 27 31 mph 1016.3mb 44f 44f
7:50pm 8ft 6s 5s 27 34 mph 1016mb 44f 44f
6:50pm 8.5ft 7s 5s 27 31 mph 1015.9mb 44f 45f
5:50pm 8ft 6s 5s 25 31 mph 1016.2mb 44f 45f
4:50pm 7.5ft 6s 5s 25 31 mph 1016.1mb 44f 44f
3:50pm 7ft 6s 5s 25 29 mph 1016.1mb 44f 44f
2:50pm 7ft 10s 5s 20 29 mph 1016.4mb 44f 44f
1:50pm 7ft 11s 6s 20 27 mph 1016.6mb 44f 44f
12:50pm 7ft 11s 6s 18 25 mph 1016.6mb 44f 44f
11:50am 6.5ft 11s 6s 18 22 mph 1017.4mb 44f 44f
10:50am 6ft 11s 6s 20 22 mph 1017.9mb 44f 43f
9:50am 6ft 11s 6s 16 20 mph 1018.4mb 44f 44f